Exeter, Pennsylvania
Current Conditions -  °F | °C
As of 2:54 AM on Friday 28 Nov 2014 (Local Time) from KAVP Reporting Station
Overcast Overcast  
Wind Chill: 19°   Ceiling: 4600
Heat Index: 27°   Visibility: 10mi
Dew Point: 23°   Wind: 7mph
Humidity: 85%   Direction: 210°SSW
Pressure: 30.06"   Gusts: NA
Location:  41.3688°N, 75.837°W
Report Text: KAVP 280754Z 21006KT 10SM FEW036 BKN046 OVC055 M03/M05 A3006 RMK AO2 SLP187 T10281050
Loading
Personal Weather Stations






























Interactive Weather Map New forecast layout! Learn more

10-Day Weather Forecast

Advertisements
Track Severe Weather on mobile